createdAt,value
2023-04-23T00:00:36.842Z,99541.72
2023-04-23T00:01:41.136Z,99552.00
2023-04-23T00:02:50.237Z,99540.06
2023-04-23T00:03:57.830Z,99542.00
2023-04-23T00:05:06.492Z,99543.97
2023-04-23T00:06:13.174Z,99542.00
2023-04-23T00:07:15.643Z,99539.53
2023-04-23T00:08:19.576Z,99547.06
2023-04-23T00:09:23.188Z,99543.16
2023-04-23T00:10:27.245Z,99540.13
2023-04-23T00:11:30.055Z,99539.03
2023-04-23T00:12:32.618Z,99538.47
2023-04-23T00:13:35.821Z,99537.34
2023-04-23T00:14:38.287Z,99541.25
2023-04-23T00:15:40.840Z,99532.09
2023-04-23T00:16:43.387Z,99527.34
2023-04-23T00:17:45.672Z,99534.88
2023-04-23T00:18:48.309Z,99521.28
2023-04-23T00:19:51.893Z,99532.41
2023-04-23T00:20:54.157Z,99522.41
2023-04-23T00:21:56.432Z,99529.09
2023-04-23T00:23:00.163Z,99529.91
2023-04-23T00:24:02.471Z,99520.25
2023-04-23T00:25:05.003Z,99531.06
2023-04-23T00:26:07.249Z,99525.00
2023-04-23T00:27:09.580Z,99531.06
2023-04-23T00:28:11.840Z,99525.81
2023-04-23T00:29:15.477Z,99519.13
2023-04-23T00:30:19.046Z,99524.69
2023-04-23T00:31:22.830Z,99519.44
2023-04-23T00:32:25.209Z,99519.75
2023-04-23T00:33:27.453Z,99522.22
2023-04-23T00:34:30.042Z,99516.66
2023-04-23T00:35:32.322Z,99520.56
2023-04-23T00:36:34.598Z,99523.34
2023-04-23T00:37:37.061Z,99521.41
2023-04-23T00:38:39.329Z,99523.34
2023-04-23T00:39:41.550Z,99523.34
2023-04-23T00:40:43.913Z,99525.00
2023-04-23T00:41:46.292Z,99524.19
2023-04-23T00:42:53.240Z,99526.97
2023-04-23T00:43:57.557Z,99525.00
2023-04-23T00:45:01.471Z,99532.50
2023-04-23T00:46:04.020Z,99522.53
2023-04-23T00:47:08.193Z,99534.44
2023-04-23T00:48:11.907Z,99533.63
2023-04-23T00:49:15.592Z,99532.81
2023-04-23T00:50:18.242Z,99525.63
2023-04-23T00:51:22.131Z,99528.41
2023-04-23T00:52:24.447Z,99537.84
2023-04-23T00:53:27.547Z,99536.19
2023-04-23T00:54:30.004Z,99526.22
2023-04-23T00:55:33.108Z,99529.00
2023-04-23T00:56:35.595Z,99533.44
2023-04-23T00:57:38.889Z,99529.31
2023-04-23T00:58:41.816Z,99532.09
2023-04-23T00:59:45.260Z,99531.56
2023-04-23T01:00:49.313Z,99527.97
2023-04-23T01:01:52.680Z,99534.66
2023-04-23T01:02:55.348Z,99534.66
2023-04-23T01:03:59.100Z,99531.38
2023-04-23T01:05:05.132Z,99525.81
2023-04-23T01:06:07.576Z,99525.81
2023-04-23T01:07:12.190Z,99529.72
2023-04-23T01:08:16.545Z,99517.75
2023-04-23T01:09:19.201Z,99516.13
2023-04-23T01:10:21.801Z,99518.06
2023-04-23T01:11:24.371Z,99519.22
2023-04-23T01:12:26.897Z,99517.56
2023-04-23T01:13:30.489Z,99519.81
2023-04-23T01:14:33.579Z,99520.66
2023-04-23T01:15:35.992Z,99515.38
2023-04-23T01:16:38.966Z,99524.56
2023-04-23T01:17:41.503Z,99521.25
2023-04-23T01:18:44.825Z,99515.69
2023-04-23T01:19:47.218Z,99516.81
2023-04-23T01:20:49.828Z,99516.81
2023-04-23T01:21:53.400Z,99523.53
2023-04-23T01:22:56.436Z,99521.03
2023-04-23T01:23:58.703Z,99518.25
2023-04-23T01:25:01.196Z,99519.41
2023-04-23T01:26:03.738Z,99517.75
2023-04-23T01:27:06.436Z,99512.53
2023-04-23T01:28:08.938Z,99518.88
2023-04-23T01:29:11.823Z,99510.88
2023-04-23T01:30:14.465Z,99523.91
2023-04-23T01:31:17.506Z,99523.41
2023-04-23T01:32:21.296Z,99525.06
2023-04-23T01:33:23.752Z,99518.16
2023-04-23T01:34:26.085Z,99521.22
2023-04-23T01:35:30.071Z,99512.41
2023-04-23T01:36:33.483Z,99523.50
2023-04-23T01:37:38.531Z,99524.63
2023-04-23T01:38:42.269Z,99523.81
2023-04-23T01:39:44.536Z,99524.94
2023-04-23T01:40:46.821Z,99522.16
2023-04-23T01:41:49.792Z,99524.13
2023-04-23T01:42:52.488Z,99520.00
2023-04-23T01:43:57.359Z,99518.34
2023-04-23T01:44:59.713Z,99519.78
2023-04-23T01:46:02.101Z,99518.66
2023-04-23T01:47:06.849Z,99522.56
2023-04-23T01:48:10.405Z,99518.94
2023-04-23T01:49:12.851Z,99510.91
2023-04-23T01:50:15.516Z,99514.53
2023-04-23T01:51:18.022Z,99518.44
2023-04-23T01:52:20.459Z,99510.41
2023-04-23T01:53:22.738Z,99515.13
2023-04-23T01:54:25.115Z,99514.31
2023-04-23T01:55:27.641Z,99522.97
2023-04-23T01:56:30.891Z,99522.13
2023-04-23T01:57:33.256Z,99512.97
2023-04-23T01:58:35.897Z,99516.88
2023-04-23T01:59:38.942Z,99522.44
2023-04-23T02:00:41.492Z,99521.63
2023-04-23T02:01:45.173Z,99520.78
2023-04-23T02:02:47.729Z,99515.53
2023-04-23T02:03:51.346Z,99519.44
2023-04-23T02:04:54.925Z,99522.22
2023-04-23T02:05:59.156Z,99525.81
2023-04-23T02:07:02.626Z,99517.78
2023-04-23T02:08:05.017Z,99509.44
2023-04-23T02:09:08.017Z,99510.91
2023-04-23T02:10:10.856Z,99510.59
2023-04-23T02:11:13.245Z,99512.53
2023-04-23T02:12:16.567Z,99515.63
2023-04-23T02:13:18.988Z,99509.25
2023-04-23T02:14:21.503Z,99504.81
2023-04-23T02:15:23.827Z,99504.81
2023-04-23T02:16:28.713Z,99506.78
2023-04-23T02:17:31.225Z,99507.91
2023-04-23T02:18:33.480Z,99503.47
2023-04-23T02:19:36.112Z,99506.25
2023-04-23T02:20:40.975Z,99512.13
2023-04-23T02:21:43.621Z,99506.88
2023-04-23T02:22:47.310Z,99506.34
2023-04-23T02:23:52.378Z,99503.88
2023-04-23T02:24:55.226Z,99509.44
2023-04-23T02:25:57.636Z,99511.34
2023-04-23T02:26:59.917Z,99510.84
2023-04-23T02:28:05.560Z,99503.66
2023-04-23T02:29:07.797Z,99504.47
2023-04-23T02:30:11.762Z,99515.88
2023-04-23T02:31:14.254Z,99511.44
2023-04-23T02:32:16.521Z,99515.88
2023-04-23T02:33:19.878Z,99503.44
2023-04-23T02:34:22.133Z,99499.53
2023-04-23T02:35:24.772Z,99516.19
2023-04-23T02:36:29.025Z,99509.28
2023-04-23T02:37:32.749Z,99508.16
2023-04-23T02:38:34.995Z,99505.69
2023-04-23T02:39:39.337Z,99506.50
2023-04-23T02:40:41.749Z,99509.59
2023-04-23T02:41:44.040Z,99515.97
2023-04-23T02:42:46.367Z,99519.88
2023-04-23T02:43:48.593Z,99509.06
2023-04-23T02:44:50.839Z,99515.44
2023-04-23T02:45:53.077Z,99524.91
2023-04-23T02:46:55.376Z,99521.31
2023-04-23T02:47:58.222Z,99512.13
2023-04-23T02:49:00.676Z,99514.09
2023-04-23T02:50:06.048Z,99522.75
2023-04-23T02:51:13.264Z,99525.50
2023-04-23T02:52:15.686Z,99512.75
2023-04-23T02:53:17.904Z,99509.13
2023-04-23T02:54:20.491Z,99514.97
2023-04-23T02:55:22.827Z,99513.31
2023-04-23T02:56:25.666Z,99511.09
2023-04-23T02:57:28.764Z,99511.91
2023-04-23T02:58:31.290Z,99508.59
2023-04-23T02:59:36.348Z,99509.41
2023-04-23T03:00:38.651Z,99503.88
2023-04-23T03:01:41.521Z,99506.94
2023-04-23T03:02:45.934Z,99503.38
2023-04-23T03:03:48.682Z,99512.50
2023-04-23T03:04:51.894Z,99500.59
2023-04-23T03:05:55.175Z,99503.63
2023-04-23T03:06:57.694Z,99504.47
2023-04-23T03:07:59.919Z,99501.16
2023-04-23T03:09:02.686Z,99502.00
2023-04-23T03:10:05.763Z,99498.41
2023-04-23T03:11:09.185Z,99498.72
2023-04-23T03:12:11.698Z,99502.59
2023-04-23T03:13:14.227Z,99499.53
2023-04-23T03:14:16.609Z,99504.25
2023-04-23T03:15:19.258Z,99500.66
2023-04-23T03:16:22.017Z,99505.06
2023-04-23T03:17:24.353Z,99499.53
2023-04-23T03:18:26.849Z,99493.47
2023-04-23T03:19:30.180Z,99491.50
2023-04-23T03:20:32.891Z,99495.94
2023-04-23T03:21:35.776Z,99488.72
2023-04-23T03:22:38.051Z,99487.59
2023-04-23T03:23:40.731Z,99484.84
2023-04-23T03:24:43.520Z,99481.25
2023-04-23T03:25:47.349Z,99485.66
2023-04-23T03:26:49.710Z,99484.84
2023-04-23T03:27:52.766Z,99486.47
2023-04-23T03:28:55.007Z,99481.25
2023-04-23T03:29:57.313Z,99482.38
2023-04-23T03:30:59.731Z,99476.81
2023-04-23T03:32:02.371Z,99474.03
2023-04-23T03:33:05.173Z,99471.25
2023-04-23T03:34:07.517Z,99477.13
2023-04-23T03:35:11.758Z,99481.53
2023-04-23T03:36:18.317Z,99477.41
2023-04-23T03:37:20.747Z,99470.72
2023-04-23T03:38:23.010Z,99467.97
2023-04-23T03:39:27.086Z,99474.63
2023-04-23T03:40:31.254Z,99479.38
2023-04-23T03:41:37.132Z,99465.50
2023-04-23T03:42:39.420Z,99453.59
2023-04-23T03:43:42.240Z,99463.53
2023-04-23T03:44:52.556Z,99444.94
2023-04-23T03:45:54.945Z,99445.75
2023-04-23T03:46:57.903Z,99438.56
2023-04-23T03:48:00.261Z,99442.16
2023-04-23T03:49:04.011Z,99443.28
2023-04-23T03:50:08.481Z,99440.53
2023-04-23T03:51:10.723Z,99442.16
2023-04-23T03:52:17.913Z,99438.56
2023-04-23T03:53:20.373Z,99443.28
2023-04-23T03:54:58.123Z,99440.53
2023-04-23T03:56:06.349Z,99436.63
2023-04-23T03:57:14.294Z,99456.84
2023-04-23T03:58:46.160Z,99461.59
2023-04-23T03:59:48.443Z,99466.31
2023-04-23T04:00:51.304Z,99472.69
2023-04-23T04:01:53.703Z,99479.06
2023-04-23T04:02:57.509Z,99480.19
2023-04-23T04:04:02.306Z,99475.78
2023-04-23T04:05:07.873Z,99483.25
2023-04-23T04:06:10.392Z,99478.00
2023-04-23T04:07:13.259Z,99478.84
2023-04-23T04:08:15.729Z,99482.75
2023-04-23T04:09:18.043Z,99473.59
2023-04-23T04:10:21.457Z,99477.22
2023-04-23T04:11:23.695Z,99477.50
2023-04-23T04:12:25.988Z,99471.13
2023-04-23T04:13:28.234Z,99473.09
2023-04-23T04:14:31.843Z,99473.09
2023-04-23T04:15:34.144Z,99485.84
2023-04-23T04:16:36.557Z,99486.66
2023-04-23T04:17:41.311Z,99479.44
2023-04-23T04:18:43.674Z,99480.56
2023-04-23T04:19:46.468Z,99489.72
2023-04-23T04:20:49.036Z,99483.34
2023-04-23T04:21:51.635Z,99487.25
2023-04-23T04:22:53.942Z,99482.53
2023-04-23T04:23:56.543Z,99488.38
2023-04-23T04:24:58.777Z,99490.03
2023-04-23T04:26:01.084Z,99487.53
2023-04-23T04:27:03.750Z,99476.44
2023-04-23T04:28:12.057Z,99492.28
2023-04-23T04:29:15.265Z,99484.75
2023-04-23T04:30:17.593Z,99482.00
2023-04-23T04:31:22.176Z,99491.47
2023-04-23T04:32:24.500Z,99490.31
2023-04-23T04:33:27.040Z,99490.31
2023-04-23T04:34:29.488Z,99495.84
2023-04-23T04:35:31.755Z,99493.94
2023-04-23T04:36:35.385Z,99495.84
2023-04-23T04:37:37.667Z,99488.38
2023-04-23T04:38:40.648Z,99495.06
2023-04-23T04:39:44.307Z,99488.69
2023-04-23T04:40:46.582Z,99487.53
2023-04-23T04:41:48.819Z,99488.38
2023-04-23T04:42:53.181Z,99494.75
2023-04-23T04:43:55.427Z,99488.06
2023-04-23T04:44:59.744Z,99490.03
2023-04-23T04:46:02.018Z,99490.84
2023-04-23T04:47:04.603Z,99493.31
2023-04-23T04:48:06.915Z,99485.84
2023-04-23T04:49:11.164Z,99488.59
2023-04-23T04:50:13.386Z,99492.19
2023-04-23T04:51:16.178Z,99488.31
2023-04-23T04:52:18.572Z,99486.34
2023-04-23T04:53:20.983Z,99483.56
2023-04-23T04:54:23.207Z,99485.22
2023-04-23T04:55:25.674Z,99485.22
2023-04-23T04:56:28.348Z,99485.22
2023-04-23T04:57:30.581Z,99491.28
2023-04-23T04:58:32.831Z,99489.34
2023-04-23T04:59:35.210Z,99495.41
2023-04-23T05:00:38.157Z,99497.06
2023-04-23T05:01:40.472Z,99495.13
2023-04-23T05:02:42.809Z,99492.84
2023-04-23T05:03:45.238Z,99488.94
2023-04-23T05:04:47.727Z,99501.72
2023-04-23T05:05:49.967Z,99487.53
2023-04-23T05:06:52.271Z,99490.00
2023-04-23T05:07:55.432Z,99487.78
2023-04-23T05:08:58.515Z,99489.44
2023-04-23T05:10:01.027Z,99495.50
2023-04-23T05:11:04.116Z,99496.84
2023-04-23T05:12:07.639Z,99497.38
2023-04-23T05:13:11.179Z,99497.88
2023-04-23T05:14:13.484Z,99493.66
2023-04-23T05:15:15.828Z,99489.78
2023-04-23T05:16:18.861Z,99491.94
2023-04-23T05:17:21.160Z,99498.00
2023-04-23T05:18:23.476Z,99491.84
2023-04-23T05:19:25.723Z,99494.03
2023-04-23T05:20:28.257Z,99497.63
2023-04-23T05:21:31.788Z,99496.19
2023-04-23T05:22:34.057Z,99498.34
2023-04-23T05:23:37.274Z,99504.44
2023-04-23T05:24:39.752Z,99501.03
2023-04-23T05:25:42.219Z,99495.69
2023-04-23T05:26:44.452Z,99504.25
2023-04-23T05:27:47.793Z,99503.13
2023-04-23T05:28:50.073Z,99508.91
2023-04-23T05:29:52.356Z,99499.41
2023-04-23T05:30:54.635Z,99513.50
2023-04-23T05:31:57.049Z,99503.44
2023-04-23T05:32:59.450Z,99505.91
2023-04-23T05:34:01.708Z,99508.41
2023-04-23T05:35:04.613Z,99506.97
2023-04-23T05:36:08.540Z,99512.72
2023-04-23T05:37:11.244Z,99507.38
2023-04-23T05:38:13.566Z,99508.72
2023-04-23T05:39:15.844Z,99510.91
2023-04-23T05:40:18.140Z,99499.47
2023-04-23T05:41:20.441Z,99512.72
2023-04-23T05:42:23.244Z,99502.94
2023-04-23T05:43:25.692Z,99508.72
2023-04-23T05:44:31.078Z,99505.09
2023-04-23T05:45:33.474Z,99503.38
2023-04-23T05:46:36.141Z,99506.66
2023-04-23T05:47:38.406Z,99506.06
2023-04-23T05:48:40.804Z,99509.34
2023-04-23T05:49:43.137Z,99505.94
2023-04-23T05:50:45.584Z,99500.13
2023-04-23T05:51:47.920Z,99505.03
2023-04-23T05:52:50.255Z,99508.63
2023-04-23T05:53:52.529Z,99509.69
2023-04-23T05:54:55.919Z,99511.31
2023-04-23T05:55:59.943Z,99509.59
2023-04-23T05:57:03.205Z,99508.63
2023-04-23T05:58:06.343Z,99516.88
2023-04-23T05:59:08.618Z,99514.31
2023-04-23T06:00:11.955Z,99509.75
2023-04-23T06:01:18.207Z,99512.13
2023-04-23T06:02:23.980Z,99506.13
2023-04-23T06:03:27.464Z,99510.97
2023-04-23T06:04:30.060Z,99502.19
2023-04-23T06:05:33.892Z,99505.03
2023-04-23T06:06:36.200Z,99503.44
2023-04-23T06:07:40.807Z,99502.41
2023-04-23T06:08:44.886Z,99506.06
2023-04-23T06:09:47.474Z,99512.22
2023-04-23T06:10:49.727Z,99511.19
2023-04-23T06:11:53.505Z,99507.00
2023-04-23T06:12:57.620Z,99514.78
2023-04-23T06:13:59.999Z,99512.22
2023-04-23T06:15:02.514Z,99512.44
2023-04-23T06:16:04.996Z,99516.28
2023-04-23T06:17:07.977Z,99508.34
2023-04-23T06:18:14.293Z,99512.97
2023-04-23T06:19:16.990Z,99508.94
2023-04-23T06:20:20.659Z,99512.41
2023-04-23T06:21:23.500Z,99515.38
2023-04-23T06:22:25.817Z,99510.47
2023-04-23T06:23:28.219Z,99501.09
2023-04-23T06:24:30.521Z,99510.50
2023-04-23T06:25:33.394Z,99512.63
2023-04-23T06:26:35.911Z,99513.59
2023-04-23T06:27:46.964Z,99511.78
2023-04-23T06:28:55.408Z,99513.09
2023-04-23T06:30:04.815Z,99512.72
2023-04-23T06:31:08.271Z,99510.72
2023-04-23T06:32:11.033Z,99510.75
2023-04-23T06:33:13.604Z,99512.19
2023-04-23T06:34:17.021Z,99504.09
2023-04-23T06:35:19.384Z,99507.22
2023-04-23T06:36:21.871Z,99508.66
2023-04-23T06:37:28.152Z,99510.44
2023-04-23T06:38:32.148Z,99508.13
2023-04-23T06:39:34.489Z,99505.47
2023-04-23T06:40:36.742Z,99509.56
2023-04-23T06:41:39.233Z,99508.09
2023-04-23T06:42:53.030Z,99514.97
2023-04-23T06:44:10.676Z,99511.84
2023-04-23T06:45:18.037Z,99514.63
2023-04-23T06:46:20.709Z,99515.47
2023-04-23T06:47:22.999Z,99518.75
2023-04-23T06:48:29.344Z,99514.28
2023-04-23T06:49:31.603Z,99517.94
2023-04-23T06:50:33.862Z,99521.06
2023-04-23T06:51:36.268Z,99523.38
2023-04-23T06:52:39.666Z,99519.78
2023-04-23T06:53:45.066Z,99521.72
2023-04-23T06:54:47.714Z,99515.66
2023-04-23T06:55:52.978Z,99530.47
2023-04-23T06:56:57.175Z,99506.78
2023-04-23T06:57:59.430Z,99518.31
2023-04-23T06:59:02.530Z,99523.41
2023-04-23T07:00:09.461Z,99518.16
2023-04-23T07:01:14.451Z,99526.88
2023-04-23T07:02:16.845Z,99526.06
2023-04-23T07:03:19.762Z,99526.25
2023-04-23T07:04:22.134Z,99528.06
2023-04-23T07:05:24.670Z,99534.34
2023-04-23T07:06:28.068Z,99515.09
2023-04-23T07:07:30.373Z,99519.22
2023-04-23T07:08:32.693Z,99525.16
2023-04-23T07:09:35.130Z,99530.25
2023-04-23T07:10:37.884Z,99530.94
2023-04-23T07:11:40.909Z,99533.22
2023-04-23T07:12:46.184Z,99530.44
2023-04-23T07:13:49.388Z,99527.50
2023-04-23T07:14:54.568Z,99529.81
2023-04-23T07:15:58.352Z,99528.16
2023-04-23T07:17:00.738Z,99525.38
2023-04-23T07:18:03.853Z,99535.22
2023-04-23T07:19:07.274Z,99533.59
2023-04-23T07:20:09.805Z,99525.50
2023-04-23T07:21:13.629Z,99540.66
2023-04-23T07:22:15.986Z,99533.44
2023-04-23T07:23:18.241Z,99537.38
2023-04-23T07:24:20.652Z,99534.06
2023-04-23T07:25:24.943Z,99543.13
2023-04-23T07:26:30.882Z,99539.19
2023-04-23T07:27:33.143Z,99535.91
2023-04-23T07:28:35.508Z,99539.38
2023-04-23T07:29:39.352Z,99542.16
2023-04-23T07:30:41.680Z,99541.66
2023-04-23T07:31:44.718Z,99541.19
2023-04-23T07:32:48.831Z,99546.28
2023-04-23T07:33:51.323Z,99544.31
2023-04-23T07:34:56.281Z,99539.88
2023-04-23T07:35:58.540Z,99537.41
2023-04-23T07:37:00.817Z,99543.00
2023-04-23T07:38:04.521Z,99547.28
2023-04-23T07:39:06.854Z,99544.78
2023-04-23T07:40:09.484Z,99548.78
2023-04-23T07:41:11.875Z,99550.72
2023-04-23T07:42:15.801Z,99550.25
2023-04-23T07:43:18.178Z,99547.75
2023-04-23T07:44:20.592Z,99550.91
2023-04-23T07:45:23.164Z,99552.03
2023-04-23T07:46:25.653Z,99553.22
2023-04-23T07:47:28.076Z,99547.47
2023-04-23T07:48:30.765Z,99543.34
2023-04-23T07:49:32.978Z,99560.44
2023-04-23T07:50:36.748Z,99551.22
2023-04-23T07:51:39.130Z,99550.41
2023-04-23T07:52:41.949Z,99555.19
2023-04-23T07:53:44.277Z,99545.97
2023-04-23T07:54:47.105Z,99552.72
2023-04-23T07:55:49.532Z,99545.50
2023-04-23T07:56:52.917Z,99545.50
2023-04-23T07:57:55.276Z,99544.66
2023-04-23T07:59:00.647Z,99548.28
2023-04-23T08:00:03.524Z,99549.91
2023-04-23T08:01:14.865Z,99556.81
2023-04-23T08:02:18.684Z,99548.94
2023-04-23T08:03:21.905Z,99556.97
2023-04-23T08:04:24.672Z,99552.38
2023-04-23T08:05:27.561Z,99555.00
2023-04-23T08:06:35.342Z,99550.38
2023-04-23T08:07:37.612Z,99553.19
2023-04-23T08:08:39.918Z,99551.03
2023-04-23T08:09:44.130Z,99552.16
2023-04-23T08:10:46.697Z,99550.22
2023-04-23T08:11:48.956Z,99548.53
2023-04-23T08:12:51.554Z,99548.31
2023-04-23T08:13:53.964Z,99553.06
2023-04-23T08:14:56.253Z,99554.34
2023-04-23T08:16:05.182Z,99539.63
2023-04-23T08:17:07.576Z,99557.69
2023-04-23T08:18:09.827Z,99553.34
2023-04-23T08:19:12.065Z,99555.44
2023-04-23T08:20:14.843Z,99545.16
2023-04-23T08:21:18.305Z,99550.03
2023-04-23T08:22:21.990Z,99550.56
2023-04-23T08:23:24.794Z,99554.25
2023-04-23T08:24:27.692Z,99555.13
2023-04-23T08:25:31.026Z,99552.41
2023-04-23T08:26:33.729Z,99552.47
2023-04-23T08:27:36.117Z,99548.88
2023-04-23T08:28:39.658Z,99550.06
2023-04-23T08:29:42.139Z,99544.34
2023-04-23T08:30:44.637Z,99549.53
2023-04-23T08:31:48.104Z,99553.88
2023-04-23T08:32:54.011Z,99553.78
2023-04-23T08:33:56.871Z,99554.47
2023-04-23T08:34:59.185Z,99560.78
2023-04-23T08:36:02.349Z,99556.59
2023-04-23T08:37:05.167Z,99565.25
2023-04-23T08:38:07.532Z,99559.06
2023-04-23T08:39:09.867Z,99563.72
2023-04-23T08:40:13.383Z,99550.59
2023-04-23T08:41:19.039Z,99554.81
2023-04-23T08:42:29.629Z,99561.38
2023-04-23T08:43:38.023Z,99558.66
2023-04-23T08:44:42.714Z,99560.75
2023-04-23T08:45:49.100Z,99567.69
2023-04-23T08:46:54.278Z,99565.72
2023-04-23T08:48:02.106Z,99569.47
2023-04-23T08:49:08.052Z,99571.91
2023-04-23T08:50:12.450Z,99574.03
2023-04-23T08:51:21.589Z,99576.13
2023-04-23T08:52:29.560Z,99570.50
2023-04-23T08:53:32.938Z,99570.50
2023-04-23T08:54:38.195Z,99573.31
2023-04-23T08:55:41.196Z,99575.63
2023-04-23T08:56:44.448Z,99583.16
2023-04-23T08:57:49.455Z,99581.06
2023-04-23T08:58:51.869Z,99576.13
2023-04-23T08:59:55.506Z,99582.78
2023-04-23T09:00:58.623Z,99576.25
2023-04-23T09:02:08.068Z,99581.75
2023-04-23T09:03:11.192Z,99578.38
2023-04-23T09:04:17.144Z,99579.41
2023-04-23T09:05:19.471Z,99575.19
2023-04-23T09:06:22.111Z,99585.03
2023-04-23T09:07:24.644Z,99581.63
2023-04-23T09:08:27.419Z,99588.63
2023-04-23T09:09:30.308Z,99588.06
2023-04-23T09:10:32.828Z,99590.28
2023-04-23T09:11:38.121Z,99589.34
2023-04-23T09:12:42.532Z,99589.22
2023-04-23T09:13:45.423Z,99586.28
2023-04-23T09:14:47.724Z,99587.44
2023-04-23T09:15:50.109Z,99588.28
2023-04-23T09:16:53.278Z,99594.22
2023-04-23T09:17:55.636Z,99577.75
2023-04-23T09:19:00.770Z,99581.38
2023-04-23T09:20:03.973Z,99579.75
2023-04-23T09:21:07.509Z,99588.00
2023-04-23T09:22:10.337Z,99580.38
2023-04-23T09:23:15.368Z,99583.53
2023-04-23T09:24:18.187Z,99579.13
2023-04-23T09:25:22.969Z,99590.81
2023-04-23T09:26:25.726Z,99591.50
2023-04-23T09:27:28.311Z,99582.25
2023-04-23T09:28:37.939Z,99588.56
2023-04-23T09:29:41.420Z,99593.03
2023-04-23T09:30:45.273Z,99586.25
2023-04-23T09:31:49.911Z,99594.66
2023-04-23T09:32:52.283Z,99583.78
2023-04-23T09:33:55.354Z,99585.41
2023-04-23T09:34:57.814Z,99587.41
2023-04-23T09:36:05.852Z,99594.66
2023-04-23T09:37:08.317Z,99596.19
2023-04-23T09:38:10.960Z,99588.22
2023-04-23T09:39:15.140Z,99594.19
2023-04-23T09:40:20.406Z,99594.19
2023-04-23T09:41:25.640Z,99596.19
2023-04-23T09:42:28.752Z,99587.41
2023-04-23T09:43:31.330Z,99590.22
2023-04-23T09:44:34.286Z,99594.19
2023-04-23T09:45:36.624Z,99597.78
2023-04-23T09:46:41.738Z,99596.19
2023-04-23T09:47:54.061Z,99599.00
2023-04-23T09:48:57.321Z,99594.53
2023-04-23T09:49:59.893Z,99598.16
2023-04-23T09:51:02.467Z,99601.66
2023-04-23T09:52:07.583Z,99590.78
2023-04-23T09:53:10.821Z,99593.91
2023-04-23T09:54:19.229Z,99589.50
2023-04-23T09:55:32.148Z,99592.97
2023-04-23T09:56:36.733Z,99588.53
2023-04-23T09:57:41.658Z,99593.69
2023-04-23T09:58:46.862Z,99592.84
2023-04-23T09:59:53.074Z,99592.38
2023-04-23T10:01:09.499Z,99589.81
2023-04-23T10:02:12.177Z,99590.97
2023-04-23T10:03:14.884Z,99587.34
2023-04-23T10:04:22.735Z,99594.13
2023-04-23T10:05:29.376Z,99588.38
2023-04-23T10:06:47.113Z,99583.13
2023-04-23T10:08:02.991Z,99597.50
2023-04-23T10:09:05.523Z,99596.19
2023-04-23T10:10:08.761Z,99593.75
2023-04-23T10:11:20.336Z,99582.53
2023-04-23T10:13:28.786Z,99595.25
2023-04-23T10:14:31.600Z,99583.53
2023-04-23T10:15:35.674Z,99591.50
2023-04-23T10:16:48.589Z,99583.41
2023-04-23T10:17:52.086Z,99581.31
2023-04-23T10:18:57.061Z,99578.50
2023-04-23T10:20:01.847Z,99587.63
2023-04-23T10:21:05.189Z,99585.13
2023-04-23T10:22:19.514Z,99583.50
2023-04-23T10:23:24.725Z,99583.38
2023-04-23T10:24:30.620Z,99582.53
2023-04-23T10:25:33.730Z,99592.44
2023-04-23T10:26:38.935Z,99568.72
2023-04-23T10:27:53.098Z,99585.44
2023-04-23T10:28:59.025Z,99588.59
2023-04-23T10:30:01.828Z,99587.56
2023-04-23T10:31:06.743Z,99579.88
2023-04-23T10:32:09.438Z,99584.16
2023-04-23T10:33:22.351Z,99581.72
2023-04-23T10:34:33.557Z,99584.38
2023-04-23T10:35:36.380Z,99585.88
2023-04-23T10:36:39.286Z,99581.44
2023-04-23T10:37:42.251Z,99586.91
2023-04-23T10:38:56.945Z,99578.84
2023-04-23T10:40:14.908Z,99586.78
2023-04-23T10:41:22.518Z,99581.03
2023-04-23T10:42:25.794Z,99583.03
2023-04-23T10:43:28.221Z,99575.28
2023-04-23T10:45:50.124Z,99585.53
2023-04-23T10:46:54.856Z,99579.78
2023-04-23T10:47:57.246Z,99585.38
2023-04-23T10:49:14.910Z,99594.97
2023-04-23T10:50:22.571Z,99597.63
2023-04-23T10:52:17.035Z,99582.78
2023-04-23T10:52:58.039Z,99595.16
2023-04-23T10:54:02.121Z,99589.88
2023-04-23T10:55:04.724Z,99590.56
2023-04-23T10:56:09.549Z,99588.59
2023-04-23T10:57:11.839Z,99597.81
2023-04-23T10:58:14.177Z,99594.19
2023-04-23T10:59:21.613Z,99598.63
2023-04-23T11:00:26.888Z,99599.47
2023-04-23T11:01:30.671Z,99597.47
2023-04-23T11:02:45.175Z,99606.69
2023-04-23T11:03:50.672Z,99601.09
2023-04-23T11:04:58.092Z,99602.72
2023-04-23T11:06:05.085Z,99602.38
2023-04-23T11:07:08.994Z,99605.19
2023-04-23T11:08:19.401Z,99602.38
2023-04-23T11:09:32.029Z,99607.66
2023-04-23T11:10:34.693Z,99610.47
2023-04-23T11:11:41.356Z,99615.72
2023-04-23T11:12:44.483Z,99604.19
2023-04-23T11:13:54.405Z,99613.03
2023-04-23T11:14:59.844Z,99611.91
2023-04-23T11:16:22.765Z,99614.34
2023-04-23T11:17:45.395Z,99606.09
2023-04-23T11:19:08.338Z,99597.34
2023-04-23T11:20:15.826Z,99608.22
2023-04-23T11:21:19.215Z,99608.22
2023-04-23T11:22:24.749Z,99600.28
2023-04-23T11:23:33.139Z,99600.28
2023-04-23T11:24:43.885Z,99597.16
2023-04-23T11:25:46.953Z,99600.44
2023-04-23T11:26:53.780Z,99605.69
2023-04-23T11:27:58.963Z,99600.94
2023-04-23T11:29:01.543Z,99610.94
2023-04-23T11:30:04.045Z,99618.53
2023-04-23T11:31:06.804Z,99610.94
2023-04-23T11:32:11.092Z,99620.66
2023-04-23T11:33:13.415Z,99611.09
2023-04-23T11:34:17.512Z,99612.75
2023-04-23T11:35:22.307Z,99608.78
2023-04-23T11:36:25.247Z,99612.41
2023-04-23T11:37:27.499Z,99603.28
2023-04-23T11:38:35.971Z,99588.97
2023-04-23T11:39:44.555Z,99595.53
2023-04-23T11:40:48.626Z,99586.78
2023-04-23T11:41:52.850Z,99591.69
2023-04-23T11:42:57.796Z,99592.50
2023-04-23T11:44:00.965Z,99593.00
2023-04-23T11:45:03.354Z,99592.34
2023-04-23T11:46:06.459Z,99586.38
2023-04-23T11:47:11.401Z,99580.09
2023-04-23T11:48:14.268Z,99588.13
2023-04-23T11:49:20.021Z,99583.81
2023-04-23T11:50:24.473Z,99580.34
2023-04-23T11:51:27.187Z,99582.47
2023-04-23T11:52:29.559Z,99580.50
2023-04-23T11:53:32.053Z,99584.59
2023-04-23T11:54:34.791Z,99582.25
2023-04-23T11:55:38.371Z,99577.94
2023-04-23T11:56:41.261Z,99577.59
2023-04-23T11:57:48.498Z,99585.66
2023-04-23T11:59:03.765Z,99590.09
2023-04-23T12:00:27.229Z,99581.00
2023-04-23T12:01:46.618Z,99584.63
2023-04-23T12:03:05.219Z,99586.28
2023-04-23T12:04:14.144Z,99583.13
2023-04-23T12:05:19.932Z,99586.72
2023-04-23T12:06:22.174Z,99584.28
2023-04-23T12:07:33.112Z,99582.63
2023-04-23T12:08:36.548Z,99585.13
2023-04-23T12:09:39.356Z,99586.28
2023-04-23T12:10:44.470Z,99584.63
2023-04-23T12:11:49.794Z,99587.44
2023-04-23T12:12:52.982Z,99585.78
2023-04-23T12:13:58.150Z,99592.56
2023-04-23T12:15:07.751Z,99589.28
2023-04-23T12:16:11.157Z,99596.06
2023-04-23T12:17:16.056Z,99598.06
2023-04-23T12:18:19.384Z,99598.06
2023-04-23T12:19:26.892Z,99597.09
2023-04-23T12:20:31.089Z,99597.09
2023-04-23T12:21:34.493Z,99599.06
2023-04-23T12:22:37.163Z,99594.63
2023-04-23T12:23:42.313Z,99601.06
2023-04-23T12:24:55.193Z,99596.97
2023-04-23T12:25:57.470Z,99592.53
2023-04-23T12:27:03.001Z,99596.13
2023-04-23T12:28:07.908Z,99594.50
2023-04-23T12:29:13.901Z,99590.88
2023-04-23T12:30:16.585Z,99597.31
2023-04-23T12:31:25.672Z,99595.66
2023-04-23T12:32:29.105Z,99592.88
2023-04-23T12:33:31.526Z,99590.06
2023-04-23T12:35:38.244Z,99588.06
2023-04-23T12:36:46.693Z,99588.91